createdAt,value
2024-02-13T00:01:22.849Z,-1.27
2024-02-13T00:03:49.587Z,-1.14
2024-02-13T00:06:18.718Z,-1.22
2024-02-13T00:08:46.335Z,-1.44
2024-02-13T00:11:15.083Z,-1.37
2024-02-13T00:13:42.197Z,-1.61
2024-02-13T00:16:10.109Z,-1.57
2024-02-13T00:18:36.761Z,-1.73
2024-02-13T00:21:04.015Z,-1.48
2024-02-13T00:23:30.714Z,-1.38
2024-02-13T00:25:57.701Z,-1.86
2024-02-13T00:28:24.319Z,-1.63
2024-02-13T00:30:51.597Z,-1.59
2024-02-13T00:33:20.360Z,-1.84
2024-02-13T00:35:47.263Z,-2.02
2024-02-13T00:38:16.728Z,-1.33
2024-02-13T00:40:43.605Z,-1.48
2024-02-13T00:43:10.284Z,-1.62
2024-02-13T00:45:37.536Z,-1.40
2024-02-13T00:48:04.434Z,-1.54
2024-02-13T00:50:31.202Z,-1.41
2024-02-13T00:53:00.312Z,-1.94
2024-02-13T00:55:27.403Z,-1.56
2024-02-13T00:57:54.090Z,-1.54
2024-02-13T01:00:20.781Z,-1.31
2024-02-13T01:02:47.438Z,-1.48
2024-02-13T01:05:14.216Z,-1.24
2024-02-13T01:07:41.129Z,-1.92
2024-02-13T01:10:08.426Z,-1.65
2024-02-13T01:12:35.407Z,-1.20
2024-02-13T01:15:02.394Z,-1.83
2024-02-13T01:17:30.348Z,-1.38
2024-02-13T01:19:58.464Z,-1.32
2024-02-13T01:22:25.273Z,-1.09
2024-02-13T01:24:52.454Z,-1.99
2024-02-13T01:27:20.401Z,-1.65
2024-02-13T01:29:48.518Z,-1.39
2024-02-13T01:32:17.999Z,-1.37
2024-02-13T01:34:44.752Z,-1.39
2024-02-13T01:37:11.501Z,-1.31
2024-02-13T01:39:39.811Z,-0.99
2024-02-13T01:42:06.433Z,-1.04
2024-02-13T01:44:33.132Z,-1.37
2024-02-13T01:46:59.894Z,-1.91
2024-02-13T01:49:30.041Z,-1.71
2024-02-13T01:51:57.720Z,-1.65
2024-02-13T01:54:27.170Z,-1.28
2024-02-13T01:56:54.506Z,-1.39
2024-02-13T01:59:23.714Z,-1.37
2024-02-13T02:01:50.624Z,-1.46
2024-02-13T02:04:19.750Z,-1.23
2024-02-13T02:06:47.075Z,-1.64
2024-02-13T02:09:14.230Z,-1.36
2024-02-13T02:11:40.926Z,-1.35
2024-02-13T02:14:09.656Z,-1.54
2024-02-13T02:16:37.100Z,-1.71
2024-02-13T02:19:04.320Z,-0.94
2024-02-13T02:21:31.050Z,-1.48
2024-02-13T02:23:57.861Z,-0.67
2024-02-13T02:26:24.704Z,-1.51
2024-02-13T02:28:51.448Z,-1.85
2024-02-13T02:31:18.057Z,-1.31
2024-02-13T02:33:47.901Z,-1.45
2024-02-13T02:36:14.803Z,-1.70
2024-02-13T02:38:41.487Z,-1.04
2024-02-13T02:41:08.518Z,-1.09
2024-02-13T02:43:38.588Z,-1.22
2024-02-13T02:46:06.100Z,-1.31
2024-02-13T02:48:32.975Z,-1.16
2024-02-13T02:50:59.885Z,-1.28
2024-02-13T02:53:26.760Z,-1.45
2024-02-13T02:55:54.516Z,-1.15
2024-02-13T02:58:21.146Z,-1.25
2024-02-13T03:00:50.101Z,-0.91
2024-02-13T03:03:17.797Z,-1.59
2024-02-13T03:05:45.081Z,-1.04
2024-02-13T03:08:13.883Z,-0.93
2024-02-13T03:10:42.094Z,-1.31
2024-02-13T03:13:10.187Z,-1.08
2024-02-13T03:15:36.890Z,-1.22
2024-02-13T03:18:05.116Z,-0.85
2024-02-13T03:20:32.382Z,-0.97
2024-02-13T03:22:59.994Z,-1.15
2024-02-13T03:25:26.845Z,-1.66
2024-02-13T03:27:53.781Z,-1.52
2024-02-13T03:30:20.487Z,-1.18
2024-02-13T03:32:47.703Z,-0.76
2024-02-13T03:35:14.750Z,-1.05
2024-02-13T03:37:41.413Z,-0.91
2024-02-13T03:40:09.846Z,-1.40
2024-02-13T03:42:38.230Z,-0.99
2024-02-13T03:45:05.085Z,-0.65
2024-02-13T03:47:32.561Z,-1.71
2024-02-13T03:49:59.402Z,-0.80
2024-02-13T03:52:26.416Z,-0.57
2024-02-13T03:54:53.118Z,-1.28
2024-02-13T03:57:19.757Z,-1.47
2024-02-13T03:59:46.420Z,-1.45
2024-02-13T04:02:13.109Z,-0.99
2024-02-13T04:04:39.778Z,-1.46
2024-02-13T04:07:06.445Z,-1.32
2024-02-13T04:09:33.274Z,-1.86
2024-02-13T04:11:59.928Z,-1.66
2024-02-13T04:14:28.409Z,-2.12
2024-02-13T04:16:55.107Z,-1.73
2024-02-13T04:19:21.744Z,-2.14
2024-02-13T04:21:48.416Z,-2.08
2024-02-13T04:24:15.176Z,-2.12
2024-02-13T04:26:42.667Z,-2.29
2024-02-13T04:29:09.675Z,-1.90
2024-02-13T04:31:37.685Z,-1.56
2024-02-13T04:34:04.527Z,-2.07
2024-02-13T04:36:32.566Z,-1.57
2024-02-13T04:38:59.646Z,-1.70
2024-02-13T04:41:27.054Z,-1.34
2024-02-13T04:43:55.453Z,-1.92
2024-02-13T04:46:26.361Z,-1.81
2024-02-13T04:48:53.767Z,-1.79
2024-02-13T04:51:20.990Z,-1.85
2024-02-13T04:53:47.968Z,-1.24
2024-02-13T04:56:16.958Z,-1.81
2024-02-13T04:58:45.074Z,-1.40
2024-02-13T05:01:14.894Z,-1.68
2024-02-13T05:03:50.774Z,-1.84
2024-02-13T05:06:36.227Z,-1.70
2024-02-13T05:09:03.005Z,-1.76
2024-02-13T05:11:29.680Z,-2.06
2024-02-13T05:14:04.096Z,-1.43
2024-02-13T05:16:33.717Z,-2.07
2024-02-13T05:19:00.617Z,-2.39
2024-02-13T05:21:28.035Z,-2.19
2024-02-13T05:23:54.934Z,-1.70
2024-02-13T05:26:21.992Z,-2.74
2024-02-13T05:28:50.450Z,-2.01
2024-02-13T05:31:19.427Z,-2.38
2024-02-13T05:33:46.321Z,-2.62
2024-02-13T05:36:13.481Z,-2.67
2024-02-13T05:38:42.213Z,-2.91
2024-02-13T05:41:08.906Z,-2.65
2024-02-13T05:43:35.536Z,-2.49
2024-02-13T05:46:02.208Z,-2.74
2024-02-13T05:48:29.029Z,-2.56
2024-02-13T05:50:55.935Z,-2.53
2024-02-13T05:53:23.362Z,-3.06
2024-02-13T05:55:50.173Z,-3.09
2024-02-13T05:58:16.872Z,-3.01
2024-02-13T06:00:43.727Z,-3.12
2024-02-13T06:03:12.732Z,-3.66
2024-02-13T06:05:41.610Z,-3.65
2024-02-13T06:08:08.263Z,-3.60
2024-02-13T06:10:36.876Z,-3.27
2024-02-13T06:13:03.651Z,-3.26
2024-02-13T06:15:30.256Z,-3.79
2024-02-13T06:17:57.073Z,-3.73
2024-02-13T06:20:23.873Z,-3.79
2024-02-13T06:22:50.652Z,-3.75
2024-02-13T06:25:17.406Z,-4.18
2024-02-13T06:27:44.065Z,-3.92
2024-02-13T06:30:11.077Z,-3.51
2024-02-13T06:32:38.518Z,-3.40
2024-02-13T06:35:05.315Z,-3.11
2024-02-13T06:37:32.048Z,-3.74
2024-02-13T06:39:58.716Z,-3.41
2024-02-13T06:42:25.316Z,-3.87
2024-02-13T06:44:52.131Z,-3.59
2024-02-13T06:47:18.959Z,-3.69
2024-02-13T06:49:45.668Z,-2.62
2024-02-13T06:52:12.330Z,-2.55
2024-02-13T06:54:39.013Z,-2.53
2024-02-13T06:57:05.843Z,-2.48
2024-02-13T06:59:32.955Z,-2.33
2024-02-13T07:02:01.155Z,-2.44
2024-02-13T07:04:27.873Z,-2.02
2024-02-13T07:07:08.625Z,-1.91
2024-02-13T07:09:47.549Z,-1.80
2024-02-13T07:12:14.314Z,-1.94
2024-02-13T07:14:41.491Z,-2.56
2024-02-13T07:17:08.310Z,-1.80
2024-02-13T07:19:35.110Z,-1.57
2024-02-13T07:22:01.842Z,-1.61
2024-02-13T07:24:28.494Z,-1.49
2024-02-13T07:26:55.180Z,-1.30
2024-02-13T07:29:21.969Z,-1.66
2024-02-13T07:31:48.671Z,-1.60
2024-02-13T07:34:15.635Z,-1.65
2024-02-13T07:36:43.045Z,-1.24
2024-02-13T07:39:11.203Z,-1.85
2024-02-13T07:41:38.684Z,-1.13
2024-02-13T07:44:05.847Z,-1.79
2024-02-13T07:46:32.610Z,-1.25
2024-02-13T07:48:59.817Z,-1.12
2024-02-13T07:51:26.685Z,-1.10
2024-02-13T07:53:53.514Z,-0.89
2024-02-13T07:56:26.041Z,-0.57
2024-02-13T07:58:52.893Z,-0.62
2024-02-13T08:01:22.952Z,-0.31
2024-02-13T08:03:49.957Z,0.77
2024-02-13T08:06:16.750Z,1.28
2024-02-13T08:08:43.508Z,1.70
2024-02-13T08:11:11.380Z,3.90
2024-02-13T08:13:38.913Z,3.79
2024-02-13T08:16:08.177Z,2.49
2024-02-13T08:18:36.370Z,1.19
2024-02-13T08:21:03.561Z,5.36
2024-02-13T08:23:34.505Z,3.27
2024-02-13T08:26:01.174Z,4.01
2024-02-13T08:28:27.888Z,3.47
2024-02-13T08:30:54.627Z,4.74
2024-02-13T08:33:22.895Z,4.55
2024-02-13T08:35:53.908Z,6.76
2024-02-13T08:38:21.663Z,3.76
2024-02-13T08:40:48.434Z,2.82
2024-02-13T08:43:15.299Z,4.00
2024-02-13T08:45:42.036Z,4.76
2024-02-13T08:48:08.969Z,5.34
2024-02-13T08:50:36.204Z,8.12
2024-02-13T08:53:02.963Z,7.44
2024-02-13T08:55:29.614Z,8.34
2024-02-13T08:57:57.765Z,9.83
2024-02-13T09:00:24.665Z,8.54
2024-02-13T09:02:51.535Z,5.83
2024-02-13T09:05:18.374Z,9.18
2024-02-13T09:07:45.237Z,8.92
2024-02-13T09:10:13.959Z,9.50
2024-02-13T09:12:41.669Z,10.48
2024-02-13T09:15:12.803Z,5.36
2024-02-13T09:17:41.257Z,9.40
2024-02-13T09:20:08.224Z,5.36
2024-02-13T09:22:34.858Z,7.60
2024-02-13T09:25:02.224Z,8.13
2024-02-13T09:27:28.947Z,8.91
2024-02-13T09:29:56.362Z,7.37
2024-02-13T09:32:23.030Z,5.47
2024-02-13T09:34:49.790Z,5.28
2024-02-13T09:37:17.033Z,5.02
2024-02-13T09:39:43.703Z,3.15
2024-02-13T09:42:10.503Z,4.41
2024-02-13T09:44:37.810Z,9.31
2024-02-13T09:47:05.292Z,9.11
2024-02-13T09:49:33.012Z,7.73
2024-02-13T09:52:00.080Z,4.40
2024-02-13T09:54:27.095Z,6.88
2024-02-13T09:56:54.213Z,6.85
2024-02-13T09:59:22.985Z,7.18
2024-02-13T10:01:50.545Z,5.11
2024-02-13T10:04:17.221Z,5.31
2024-02-13T10:06:44.011Z,6.49
2024-02-13T10:09:13.069Z,4.10
2024-02-13T10:11:40.215Z,5.05
2024-02-13T10:14:16.736Z,6.83
2024-02-13T10:16:43.763Z,5.98
2024-02-13T10:19:14.487Z,5.23
2024-02-13T10:21:43.061Z,3.70
2024-02-13T10:24:13.292Z,5.13
2024-02-13T10:26:40.220Z,5.63
2024-02-13T10:29:08.340Z,5.19
2024-02-13T10:31:40.738Z,4.86
2024-02-13T10:34:11.137Z,2.81
2024-02-13T10:36:40.000Z,3.50
2024-02-13T10:39:10.207Z,6.93
2024-02-13T10:41:40.965Z,4.06
2024-02-13T10:44:11.610Z,5.24
2024-02-13T10:46:43.788Z,4.73
2024-02-13T10:49:10.591Z,4.14
2024-02-13T10:51:38.667Z,3.52
2024-02-13T10:54:10.662Z,4.85
2024-02-13T10:56:38.676Z,4.90
2024-02-13T10:59:06.131Z,4.66
2024-02-13T11:01:36.286Z,3.93
2024-02-13T11:04:03.461Z,3.70
2024-02-13T11:06:30.511Z,3.60
2024-02-13T11:08:58.505Z,3.81
2024-02-13T11:11:27.047Z,3.92
2024-02-13T11:13:54.094Z,3.53
2024-02-13T11:16:23.101Z,5.25
2024-02-13T11:18:50.812Z,7.57
2024-02-13T11:21:21.434Z,7.86
2024-02-13T11:23:52.945Z,7.98
2024-02-13T11:26:20.506Z,7.57
2024-02-13T11:28:48.270Z,7.53
2024-02-13T11:31:18.212Z,9.50
2024-02-13T11:34:05.627Z,6.91
2024-02-13T11:36:33.709Z,6.75
2024-02-13T11:39:00.630Z,7.32
2024-02-13T11:41:27.862Z,6.82
2024-02-13T11:44:04.353Z,7.08
2024-02-13T11:46:31.070Z,8.56
2024-02-13T11:49:00.246Z,8.34
2024-02-13T11:51:27.455Z,6.98
2024-02-13T11:53:54.103Z,7.87
2024-02-13T11:56:21.936Z,6.87
2024-02-13T11:58:49.262Z,5.82
2024-02-13T12:01:19.719Z,3.99
2024-02-13T12:03:47.178Z,3.90
2024-02-13T12:06:14.248Z,5.49
2024-02-13T12:08:44.964Z,6.60
2024-02-13T12:11:12.124Z,5.98
2024-02-13T12:13:39.076Z,5.56
2024-02-13T12:16:06.422Z,5.93
2024-02-13T12:18:33.849Z,6.35
2024-02-13T12:21:01.202Z,5.97
2024-02-13T12:23:28.068Z,5.62
2024-02-13T12:26:01.886Z,7.42
2024-02-13T12:28:29.772Z,7.37
2024-02-13T12:30:56.877Z,6.82
2024-02-13T12:33:25.164Z,6.75
2024-02-13T12:36:02.383Z,7.79
2024-02-13T12:38:31.557Z,7.09
2024-02-13T12:40:59.131Z,7.89
2024-02-13T12:43:28.886Z,7.26
2024-02-13T12:45:56.586Z,6.77
2024-02-13T12:48:24.004Z,8.88
2024-02-13T12:50:52.818Z,6.27
2024-02-13T12:53:22.661Z,7.28
2024-02-13T12:55:50.691Z,7.00
2024-02-13T12:58:18.349Z,5.03
2024-02-13T13:00:48.906Z,6.82
2024-02-13T13:03:16.462Z,7.08
2024-02-13T13:05:44.580Z,7.54
2024-02-13T13:08:16.221Z,9.24
2024-02-13T13:10:44.502Z,6.29
2024-02-13T13:13:14.312Z,6.05
2024-02-13T13:15:42.214Z,4.38
2024-02-13T13:18:16.778Z,6.49
2024-02-13T13:20:48.012Z,6.59
2024-02-13T13:23:17.830Z,4.36
2024-02-13T13:25:46.904Z,6.95
2024-02-13T13:28:17.678Z,6.32
2024-02-13T13:30:47.849Z,6.27
2024-02-13T13:33:20.741Z,6.61
2024-02-13T13:35:48.082Z,5.78
2024-02-13T13:38:18.848Z,5.68
2024-02-13T13:40:47.421Z,6.37
2024-02-13T13:43:15.787Z,7.01
2024-02-13T13:45:52.159Z,5.78
2024-02-13T13:48:20.330Z,6.72
2024-02-13T13:50:47.321Z,6.44
2024-02-13T13:53:17.958Z,6.90
2024-02-13T13:55:45.100Z,7.51
2024-02-13T13:58:12.192Z,6.07
2024-02-13T14:00:38.860Z,6.60
2024-02-13T14:03:08.973Z,7.42
2024-02-13T14:05:36.822Z,6.79
2024-02-13T14:08:04.227Z,7.68
2024-02-13T14:10:31.135Z,8.34
2024-02-13T14:12:57.962Z,7.75
2024-02-13T14:15:25.356Z,8.39
2024-02-13T14:17:52.047Z,7.10
2024-02-13T14:20:18.778Z,7.31
2024-02-13T14:22:46.180Z,6.05
2024-02-13T14:25:13.543Z,6.08
2024-02-13T14:27:40.209Z,6.23
2024-02-13T14:30:07.318Z,6.79
2024-02-13T14:32:34.969Z,5.29
2024-02-13T14:35:01.944Z,4.53
2024-02-13T14:37:28.701Z,4.94
2024-02-13T14:39:55.743Z,4.59
2024-02-13T14:42:23.061Z,4.89
2024-02-13T14:44:50.581Z,4.53
2024-02-13T14:47:17.616Z,5.14
2024-02-13T14:49:44.543Z,4.42
2024-02-13T14:52:11.508Z,4.38
2024-02-13T14:54:46.379Z,5.15
2024-02-13T14:57:17.624Z,5.16
2024-02-13T14:59:46.669Z,4.44
2024-02-13T15:02:16.950Z,5.05
2024-02-13T15:04:44.400Z,4.75
2024-02-13T15:07:11.820Z,4.08
2024-02-13T15:09:38.494Z,4.69
2024-02-13T15:12:07.257Z,3.63
2024-02-13T15:14:34.179Z,4.37
2024-02-13T15:17:00.904Z,4.39
2024-02-13T15:19:29.822Z,4.78
2024-02-13T15:21:57.609Z,4.20
2024-02-13T15:24:25.781Z,3.71
2024-02-13T15:26:52.823Z,4.13
2024-02-13T15:29:21.021Z,4.66
2024-02-13T15:31:47.788Z,4.71
2024-02-13T15:34:14.664Z,4.96
2024-02-13T15:37:02.460Z,4.01
2024-02-13T15:39:48.456Z,4.04
2024-02-13T15:42:33.808Z,4.32
2024-02-13T15:45:19.203Z,3.88
2024-02-13T15:47:46.069Z,3.29
2024-02-13T15:50:12.985Z,2.76
2024-02-13T15:52:42.589Z,2.77
2024-02-13T15:55:11.973Z,2.81
2024-02-13T15:57:39.721Z,2.57
2024-02-13T16:00:10.459Z,2.79
2024-02-13T16:02:38.107Z,2.26
2024-02-13T16:05:05.516Z,2.11
2024-02-13T16:07:33.709Z,2.40
2024-02-13T16:10:00.934Z,2.14
2024-02-13T16:12:27.659Z,1.87
2024-02-13T16:14:55.272Z,1.48
2024-02-13T16:17:22.188Z,1.09
2024-02-13T16:19:49.039Z,0.96
2024-02-13T16:22:16.051Z,0.87
2024-02-13T16:24:45.875Z,0.70
2024-02-13T16:27:12.769Z,0.71
2024-02-13T16:29:40.925Z,0.95
2024-02-13T16:32:08.524Z,0.94
2024-02-13T16:34:36.049Z,0.71
2024-02-13T16:37:03.452Z,0.71
2024-02-13T16:39:30.104Z,0.61
2024-02-13T16:41:57.735Z,0.22
2024-02-13T16:44:24.637Z,-0.22
2024-02-13T16:46:52.340Z,-0.59
2024-02-13T16:49:19.149Z,-0.64
2024-02-13T16:51:45.885Z,-0.40
2024-02-13T16:54:12.851Z,-0.49
2024-02-13T16:56:39.822Z,-0.68
2024-02-13T16:59:06.659Z,-0.68
2024-02-13T17:01:33.705Z,-0.67
2024-02-13T17:04:02.234Z,-0.75
2024-02-13T17:06:32.010Z,-2.03
2024-02-13T17:08:59.108Z,-1.27
2024-02-13T17:11:25.998Z,-1.43
2024-02-13T17:13:52.782Z,-1.31
2024-02-13T17:16:20.308Z,-1.40
2024-02-13T17:18:47.330Z,-1.02
2024-02-13T17:21:14.230Z,-1.50
2024-02-13T17:23:40.988Z,-1.14
2024-02-13T17:26:08.937Z,-0.88
2024-02-13T17:28:35.629Z,-1.10
2024-02-13T17:31:02.365Z,-1.47
2024-02-13T17:33:29.301Z,-1.39
2024-02-13T17:35:57.159Z,-1.45
2024-02-13T17:38:24.869Z,-1.72
2024-02-13T17:40:53.570Z,-1.38
2024-02-13T17:43:20.415Z,-1.53
2024-02-13T17:45:47.898Z,-2.06
2024-02-13T17:48:14.603Z,-1.49
2024-02-13T17:50:41.492Z,-2.18
2024-02-13T17:53:08.283Z,-2.18
2024-02-13T17:55:37.487Z,-2.70
2024-02-13T17:58:04.522Z,-2.59
2024-02-13T18:00:34.971Z,-2.54
2024-02-13T18:03:05.596Z,-2.09
2024-02-13T18:05:32.566Z,-1.79
2024-02-13T18:08:04.679Z,-2.09
2024-02-13T18:10:32.000Z,-2.38
2024-02-13T18:12:59.833Z,-3.15
2024-02-13T18:15:29.489Z,-2.51
2024-02-13T18:17:57.264Z,-2.75
2024-02-13T18:20:25.485Z,-2.77
2024-02-13T18:22:52.876Z,-3.04
2024-02-13T18:25:19.588Z,-3.33
2024-02-13T18:27:46.251Z,-3.09
2024-02-13T18:30:13.103Z,-3.25
2024-02-13T18:32:40.012Z,-3.35
2024-02-13T18:35:06.863Z,-3.58
2024-02-13T18:37:33.555Z,-3.34
2024-02-13T18:40:00.302Z,-3.36
2024-02-13T18:42:26.940Z,-3.42
2024-02-13T18:44:54.039Z,-3.40
2024-02-13T18:47:20.735Z,-4.11
2024-02-13T18:49:48.658Z,-3.83
2024-02-13T18:52:15.820Z,-3.64
2024-02-13T18:54:42.418Z,-4.59
2024-02-13T18:57:09.192Z,-4.14
2024-02-13T18:59:36.272Z,-3.31
2024-02-13T19:02:03.671Z,-3.22
2024-02-13T19:04:30.437Z,-2.86
2024-02-13T19:06:57.244Z,-3.54
2024-02-13T19:09:23.992Z,-4.19
2024-02-13T19:11:54.323Z,-3.68
2024-02-13T19:14:21.489Z,-4.79
2024-02-13T19:16:48.210Z,-4.11
2024-02-13T19:19:15.134Z,-4.12
2024-02-13T19:21:42.720Z,-4.74
2024-02-13T19:24:10.733Z,-4.66
2024-02-13T19:26:37.586Z,-4.74
2024-02-13T19:29:05.751Z,-4.50
2024-02-13T19:31:33.054Z,-4.54
2024-02-13T19:33:59.851Z,-4.31
2024-02-13T19:36:32.905Z,-3.83
2024-02-13T19:39:03.112Z,-4.59
2024-02-13T19:41:29.950Z,-5.25
2024-02-13T19:43:56.767Z,-4.83
2024-02-13T19:46:24.362Z,-4.80
2024-02-13T19:48:52.485Z,-4.42
2024-02-13T19:51:19.346Z,-4.67
2024-02-13T19:53:46.711Z,-5.51
2024-02-13T19:56:15.359Z,-5.54
2024-02-13T19:58:43.497Z,-5.35
2024-02-13T20:01:10.380Z,-4.96
2024-02-13T20:03:38.195Z,-4.33
2024-02-13T20:06:05.205Z,-3.97
2024-02-13T20:08:32.211Z,-4.03
2024-02-13T20:10:59.087Z,-5.08
2024-02-13T20:13:25.877Z,-4.64
2024-02-13T20:15:52.776Z,-4.56
2024-02-13T20:18:20.352Z,-5.38
2024-02-13T20:20:47.553Z,-5.60
2024-02-13T20:23:14.315Z,-5.18
2024-02-13T20:25:41.076Z,-5.10
2024-02-13T20:28:10.652Z,-5.29
2024-02-13T20:30:40.367Z,-5.34
2024-02-13T20:33:07.588Z,-5.80
2024-02-13T20:35:34.394Z,-5.64
2024-02-13T20:38:01.139Z,-5.48
2024-02-13T20:40:27.897Z,-5.49
2024-02-13T20:42:54.530Z,-5.39
2024-02-13T20:45:25.722Z,-5.26
2024-02-13T20:47:53.231Z,-5.33
2024-02-13T20:50:20.854Z,-5.53
2024-02-13T20:52:47.932Z,-5.45
2024-02-13T20:55:17.790Z,-5.29
2024-02-13T20:57:45.932Z,-5.49
2024-02-13T21:00:15.989Z,-5.70
2024-02-13T21:02:43.536Z,-5.08
2024-02-13T21:05:11.295Z,-5.20
2024-02-13T21:07:38.440Z,-5.27
2024-02-13T21:10:07.586Z,-5.15
2024-02-13T21:12:34.354Z,-5.10
2024-02-13T21:15:01.251Z,-5.17
2024-02-13T21:17:28.708Z,-5.57
2024-02-13T21:20:01.148Z,-5.69
2024-02-13T21:22:46.677Z,-5.28
2024-02-13T21:25:13.658Z,-5.26
2024-02-13T21:27:40.321Z,-5.32
2024-02-13T21:30:07.533Z,-5.62
2024-02-13T21:32:34.523Z,-5.48
2024-02-13T21:35:02.037Z,-5.62
2024-02-13T21:37:28.881Z,-5.36
2024-02-13T21:39:55.507Z,-5.42
2024-02-13T21:42:22.239Z,-5.64
2024-02-13T21:44:48.978Z,-5.58
2024-02-13T21:47:15.804Z,-6.04
2024-02-13T21:49:42.583Z,-5.37
2024-02-13T21:52:09.743Z,-5.68
2024-02-13T21:54:36.483Z,-5.49
2024-02-13T21:57:05.237Z,-5.12
2024-02-13T21:59:32.145Z,-5.03
2024-02-13T22:01:58.844Z,-5.10
2024-02-13T22:04:25.591Z,-5.36
2024-02-13T22:06:52.483Z,-5.44
2024-02-13T22:09:19.180Z,-5.92
2024-02-13T22:11:45.849Z,-5.22
2024-02-13T22:14:12.517Z,-5.30
2024-02-13T22:16:39.426Z,-5.83
2024-02-13T22:19:06.445Z,-6.17
2024-02-13T22:21:33.476Z,-6.53
2024-02-13T22:24:02.090Z,-5.96
2024-02-13T22:26:29.373Z,-5.28
2024-02-13T22:28:56.156Z,-5.45
2024-02-13T22:31:24.703Z,-5.98
2024-02-13T22:33:51.455Z,-5.87
2024-02-13T22:36:22.818Z,-5.92
2024-02-13T22:38:49.568Z,-5.85
2024-02-13T22:41:16.231Z,-6.51
2024-02-13T22:43:43.996Z,-6.32
2024-02-13T22:46:13.113Z,-6.44
2024-02-13T22:48:40.600Z,-6.34
2024-02-13T22:51:07.482Z,-6.58
2024-02-13T22:53:34.189Z,-6.02
2024-02-13T22:56:00.875Z,-5.87
2024-02-13T22:58:28.027Z,-5.82
2024-02-13T23:01:01.636Z,-6.33
2024-02-13T23:03:29.437Z,-6.16
2024-02-13T23:05:59.091Z,-5.93
2024-02-13T23:08:27.506Z,-5.86
2024-02-13T23:10:54.884Z,-5.50
2024-02-13T23:13:23.140Z,-6.23
2024-02-13T23:15:52.399Z,-6.09
2024-02-13T23:18:19.295Z,-5.85
2024-02-13T23:20:46.275Z,-5.99
2024-02-13T23:23:12.914Z,-6.09
2024-02-13T23:25:39.659Z,-6.18
2024-02-13T23:28:07.316Z,-6.08
2024-02-13T23:30:36.131Z,-6.67
2024-02-13T23:33:03.216Z,-7.05
2024-02-13T23:35:30.081Z,-6.77
2024-02-13T23:37:56.890Z,-7.03
2024-02-13T23:40:23.601Z,-6.85
2024-02-13T23:42:51.815Z,-6.73
2024-02-13T23:45:18.570Z,-6.53
2024-02-13T23:47:45.311Z,-6.66
2024-02-13T23:50:12.240Z,-6.45
2024-02-13T23:52:39.110Z,-6.12
2024-02-13T23:55:12.076Z,-6.42
2024-02-13T23:57:41.464Z,-6.26
